Malone, Texas
Current Conditions -  °F | °C
As of 12:35 AM on Sunday 21 Dec 2014 (Local Time) from KINJ Reporting Station
Haze Haze  
Wind Chill: 43°   Ceiling: 2700
Heat Index: 48°   Visibility: 5mi
Dew Point: 45°   Wind: 9mph
Humidity: 90%   Direction: 100°E
Pressure: 30.17"   Gusts: NA
Location:  31.92°N, 96.89°W
Report Text: KINJ 210635Z AUTO 10008KT 5SM BR OVC027 09/07 A3017 RMK AO2 T00870071
Loading
Personal Weather Stations






























Interactive Weather Map New forecast layout! Learn more

10-Day Weather Forecast

Advertisements
Track Severe Weather on mobile